sensor_id;sensor_type;location;lat;lon;timestamp;P1;durP1;ratioP1;P2;durP2;ratioP2
9254;SDS011;4663;49.120;9.730;2023-02-22T00:00:19;48.00;;;44.73;;
9254;SDS011;4663;49.120;9.730;2023-02-22T00:03:00;47.73;;;44.90;;
9254;SDS011;4663;49.120;9.730;2023-02-22T00:05:26;49.43;;;46.60;;
9254;SDS011;4663;49.120;9.730;2023-02-22T00:07:53;49.47;;;46.57;;
9254;SDS011;4663;49.120;9.730;2023-02-22T00:10:22;50.60;;;47.80;;
9254;SDS011;4663;49.120;9.730;2023-02-22T00:12:50;49.73;;;46.83;;
9254;SDS011;4663;49.120;9.730;2023-02-22T00:15:17;48.97;;;46.17;;
9254;SDS011;4663;49.120;9.730;2023-02-22T00:17:44;43.73;;;41.20;;
9254;SDS011;4663;49.120;9.730;2023-02-22T00:20:11;45.17;;;42.53;;
9254;SDS011;4663;49.120;9.730;2023-02-22T00:22:39;43.00;;;40.47;;
9254;SDS011;4663;49.120;9.730;2023-02-22T00:25:05;40.00;;;37.50;;
9254;SDS011;4663;49.120;9.730;2023-02-22T00:27:31;40.37;;;38.00;;
9254;SDS011;4663;49.120;9.730;2023-02-22T00:29:56;36.03;;;33.63;;
9254;SDS011;4663;49.120;9.730;2023-02-22T00:32:22;33.73;;;31.53;;
9254;SDS011;4663;49.120;9.730;2023-02-22T00:34:50;33.37;;;31.07;;
9254;SDS011;4663;49.120;9.730;2023-02-22T00:37:19;30.50;;;28.40;;
9254;SDS011;4663;49.120;9.730;2023-02-22T00:39:47;27.80;;;25.90;;
9254;SDS011;4663;49.120;9.730;2023-02-22T00:42:14;28.07;;;25.93;;
9254;SDS011;4663;49.120;9.730;2023-02-22T00:44:40;27.90;;;25.73;;
9254;SDS011;4663;49.120;9.730;2023-02-22T00:47:06;25.60;;;23.47;;
9254;SDS011;4663;49.120;9.730;2023-02-22T00:49:32;25.50;;;23.60;;
9254;SDS011;4663;49.120;9.730;2023-02-22T00:51:58;24.17;;;22.20;;
9254;SDS011;4663;49.120;9.730;2023-02-22T00:54:24;23.93;;;22.13;;
9254;SDS011;4663;49.120;9.730;2023-02-22T00:56:50;23.57;;;21.77;;
9254;SDS011;4663;49.120;9.730;2023-02-22T00:59:15;25.17;;;22.70;;
9254;SDS011;4663;49.120;9.730;2023-02-22T01:01:41;24.70;;;22.97;;
9254;SDS011;4663;49.120;9.730;2023-02-22T01:04:07;24.67;;;22.77;;
9254;SDS011;4663;49.120;9.730;2023-02-22T01:06:33;23.03;;;21.43;;
9254;SDS011;4663;49.120;9.730;2023-02-22T01:09:00;21.83;;;20.13;;
9254;SDS011;4663;49.120;9.730;2023-02-22T01:11:26;23.80;;;21.97;;
9254;SDS011;4663;49.120;9.730;2023-02-22T01:13:52;22.47;;;20.67;;
9254;SDS011;4663;49.120;9.730;2023-02-22T01:16:18;25.27;;;23.33;;
9254;SDS011;4663;49.120;9.730;2023-02-22T01:18:44;23.70;;;21.70;;
9254;SDS011;4663;49.120;9.730;2023-02-22T01:21:09;23.40;;;21.57;;
9254;SDS011;4663;49.120;9.730;2023-02-22T01:23:35;22.50;;;20.53;;
9254;SDS011;4663;49.120;9.730;2023-02-22T01:26:00;24.43;;;22.63;;
9254;SDS011;4663;49.120;9.730;2023-02-22T01:28:28;23.77;;;21.93;;
9254;SDS011;4663;49.120;9.730;2023-02-22T01:30:53;23.13;;;21.43;;
9254;SDS011;4663;49.120;9.730;2023-02-22T01:33:20;24.33;;;22.53;;
9254;SDS011;4663;49.120;9.730;2023-02-22T01:35:45;24.77;;;22.67;;
9254;SDS011;4663;49.120;9.730;2023-02-22T01:38:11;23.40;;;21.67;;
9254;SDS011;4663;49.120;9.730;2023-02-22T01:40:38;24.07;;;21.87;;
9254;SDS011;4663;49.120;9.730;2023-02-22T01:46:05;21.60;;;20.00;;
9254;SDS011;4663;49.120;9.730;2023-02-22T01:49:02;23.13;;;21.43;;
9254;SDS011;4663;49.120;9.730;2023-02-22T01:51:42;23.17;;;21.27;;
9254;SDS011;4663;49.120;9.730;2023-02-22T01:54:14;22.43;;;20.73;;
9254;SDS011;4663;49.120;9.730;2023-02-22T01:56:49;22.30;;;20.60;;
9254;SDS011;4663;49.120;9.730;2023-02-22T01:59:24;23.33;;;21.47;;
9254;SDS011;4663;49.120;9.730;2023-02-22T02:01:52;22.97;;;21.13;;
9254;SDS011;4663;49.120;9.730;2023-02-22T02:04:20;23.13;;;21.33;;
9254;SDS011;4663;49.120;9.730;2023-02-22T02:06:51;23.17;;;21.37;;
9254;SDS011;4663;49.120;9.730;2023-02-22T02:12:03;23.80;;;21.83;;
9254;SDS011;4663;49.120;9.730;2023-02-22T02:14:31;25.03;;;23.17;;
9254;SDS011;4663;49.120;9.730;2023-02-22T02:16:57;22.13;;;20.33;;
9254;SDS011;4663;49.120;9.730;2023-02-22T02:22:19;22.07;;;20.37;;
9254;SDS011;4663;49.120;9.730;2023-02-22T02:27:25;21.53;;;19.97;;
9254;SDS011;4663;49.120;9.730;2023-02-22T02:41:58;26.47;;;24.57;;
9254;SDS011;4663;49.120;9.730;2023-02-22T02:47:12;24.07;;;22.17;;
9254;SDS011;4663;49.120;9.730;2023-02-22T02:52:20;24.20;;;22.37;;
9254;SDS011;4663;49.120;9.730;2023-02-22T02:54:49;26.40;;;24.10;;
9254;SDS011;4663;49.120;9.730;2023-02-22T02:57:15;26.20;;;24.03;;
9254;SDS011;4663;49.120;9.730;2023-02-22T02:59:40;27.60;;;25.67;;
9254;SDS011;4663;49.120;9.730;2023-02-22T03:02:14;27.83;;;25.63;;
9254;SDS011;4663;49.120;9.730;2023-02-22T03:17:56;29.67;;;27.77;;
9254;SDS011;4663;49.120;9.730;2023-02-22T03:23:11;33.50;;;31.07;;
9254;SDS011;4663;49.120;9.730;2023-02-22T03:26:07;34.47;;;31.83;;
9254;SDS011;4663;49.120;9.730;2023-02-22T03:28:37;34.50;;;32.20;;
9254;SDS011;4663;49.120;9.730;2023-02-22T03:31:10;34.70;;;32.10;;
9254;SDS011;4663;49.120;9.730;2023-02-22T03:33:43;34.00;;;31.73;;
9254;SDS011;4663;49.120;9.730;2023-02-22T03:36:32;35.70;;;33.30;;
9254;SDS011;4663;49.120;9.730;2023-02-22T03:39:03;38.20;;;35.63;;
9254;SDS011;4663;49.120;9.730;2023-02-22T03:41:32;36.70;;;34.23;;
9254;SDS011;4663;49.120;9.730;2023-02-22T03:44:05;41.00;;;38.30;;
9254;SDS011;4663;49.120;9.730;2023-02-22T03:46:34;43.90;;;40.90;;
9254;SDS011;4663;49.120;9.730;2023-02-22T03:49:13;46.77;;;43.87;;
9254;SDS011;4663;49.120;9.730;2023-02-22T03:51:40;48.23;;;45.20;;
9254;SDS011;4663;49.120;9.730;2023-02-22T03:54:06;47.60;;;44.67;;
9254;SDS011;4663;49.120;9.730;2023-02-22T03:56:33;46.80;;;43.83;;
9254;SDS011;4663;49.120;9.730;2023-02-22T03:59:04;49.10;;;46.10;;
9254;SDS011;4663;49.120;9.730;2023-02-22T04:01:32;51.33;;;48.20;;
9254;SDS011;4663;49.120;9.730;2023-02-22T04:03:58;48.90;;;45.93;;
9254;SDS011;4663;49.120;9.730;2023-02-22T04:06:24;49.67;;;46.70;;
9254;SDS011;4663;49.120;9.730;2023-02-22T04:08:50;50.27;;;47.13;;
9254;SDS011;4663;49.120;9.730;2023-02-22T04:11:15;51.87;;;48.67;;
9254;SDS011;4663;49.120;9.730;2023-02-22T04:13:40;54.73;;;51.43;;
9254;SDS011;4663;49.120;9.730;2023-02-22T04:16:06;57.37;;;53.93;;
9254;SDS011;4663;49.120;9.730;2023-02-22T04:18:31;54.17;;;50.67;;
9254;SDS011;4663;49.120;9.730;2023-02-22T04:20:56;60.17;;;56.57;;
9254;SDS011;4663;49.120;9.730;2023-02-22T04:23:22;57.30;;;53.80;;
9254;SDS011;4663;49.120;9.730;2023-02-22T04:25:47;59.57;;;55.87;;
9254;SDS011;4663;49.120;9.730;2023-02-22T04:28:13;65.40;;;61.40;;
9254;SDS011;4663;49.120;9.730;2023-02-22T04:30:38;56.03;;;52.63;;
9254;SDS011;4663;49.120;9.730;2023-02-22T04:33:03;60.87;;;57.20;;
9254;SDS011;4663;49.120;9.730;2023-02-22T04:35:29;58.57;;;55.07;;
9254;SDS011;4663;49.120;9.730;2023-02-22T04:37:54;59.37;;;55.77;;
9254;SDS011;4663;49.120;9.730;2023-02-22T04:40:20;59.23;;;55.53;;
9254;SDS011;4663;49.120;9.730;2023-02-22T04:42:45;57.83;;;54.20;;
9254;SDS011;4663;49.120;9.730;2023-02-22T04:45:10;55.60;;;52.30;;
9254;SDS011;4663;49.120;9.730;2023-02-22T04:47:36;57.13;;;53.70;;
9254;SDS011;4663;49.120;9.730;2023-02-22T04:50:02;56.57;;;53.10;;
9254;SDS011;4663;49.120;9.730;2023-02-22T04:52:29;61.27;;;57.57;;
9254;SDS011;4663;49.120;9.730;2023-02-22T04:54:54;58.97;;;55.40;;
9254;SDS011;4663;49.120;9.730;2023-02-22T04:57:20;58.77;;;55.03;;
9254;SDS011;4663;49.120;9.730;2023-02-22T04:59:45;55.73;;;52.23;;
9254;SDS011;4663;49.120;9.730;2023-02-22T05:02:11;53.73;;;50.57;;
9254;SDS011;4663;49.120;9.730;2023-02-22T05:04:36;54.50;;;51.30;;
9254;SDS011;4663;49.120;9.730;2023-02-22T05:07:02;55.83;;;52.40;;
9254;SDS011;4663;49.120;9.730;2023-02-22T05:09:28;55.70;;;52.60;;
9254;SDS011;4663;49.120;9.730;2023-02-22T05:11:53;61.83;;;58.00;;
9254;SDS011;4663;49.120;9.730;2023-02-22T05:14:19;57.53;;;54.13;;
9254;SDS011;4663;49.120;9.730;2023-02-22T05:16:47;60.80;;;57.30;;
9254;SDS011;4663;49.120;9.730;2023-02-22T05:19:13;59.57;;;56.07;;
9254;SDS011;4663;49.120;9.730;2023-02-22T05:21:38;61.83;;;58.33;;
9254;SDS011;4663;49.120;9.730;2023-02-22T05:24:04;68.17;;;64.07;;
9254;SDS011;4663;49.120;9.730;2023-02-22T05:26:30;67.17;;;63.27;;
9254;SDS011;4663;49.120;9.730;2023-02-22T05:28:55;66.50;;;62.83;;
9254;SDS011;4663;49.120;9.730;2023-02-22T05:31:20;70.70;;;66.60;;
9254;SDS011;4663;49.120;9.730;2023-02-22T05:33:46;67.47;;;63.30;;
9254;SDS011;4663;49.120;9.730;2023-02-22T05:36:12;63.57;;;59.73;;
9254;SDS011;4663;49.120;9.730;2023-02-22T05:38:38;62.77;;;59.20;;
9254;SDS011;4663;49.120;9.730;2023-02-22T05:41:08;58.43;;;55.10;;
9254;SDS011;4663;49.120;9.730;2023-02-22T05:43:34;61.27;;;57.53;;
9254;SDS011;4663;49.120;9.730;2023-02-22T05:46:00;60.87;;;57.13;;
9254;SDS011;4663;49.120;9.730;2023-02-22T05:48:25;62.30;;;58.63;;
9254;SDS011;4663;49.120;9.730;2023-02-22T05:50:51;55.47;;;52.33;;
9254;SDS011;4663;49.120;9.730;2023-02-22T05:53:16;62.07;;;58.50;;
9254;SDS011;4663;49.120;9.730;2023-02-22T05:55:41;55.00;;;51.70;;
9254;SDS011;4663;49.120;9.730;2023-02-22T05:58:07;56.07;;;52.73;;
9254;SDS011;4663;49.120;9.730;2023-02-22T06:00:32;53.83;;;50.60;;
9254;SDS011;4663;49.120;9.730;2023-02-22T06:02:59;51.97;;;48.67;;
9254;SDS011;4663;49.120;9.730;2023-02-22T06:05:26;54.37;;;51.07;;
9254;SDS011;4663;49.120;9.730;2023-02-22T06:07:52;59.47;;;55.70;;
9254;SDS011;4663;49.120;9.730;2023-02-22T06:10:18;54.47;;;51.23;;
9254;SDS011;4663;49.120;9.730;2023-02-22T06:12:44;54.83;;;51.43;;
9254;SDS011;4663;49.120;9.730;2023-02-22T06:15:10;54.53;;;50.97;;
9254;SDS011;4663;49.120;9.730;2023-02-22T06:17:35;54.70;;;51.47;;
9254;SDS011;4663;49.120;9.730;2023-02-22T06:20:00;55.80;;;52.47;;
9254;SDS011;4663;49.120;9.730;2023-02-22T06:22:26;49.83;;;46.73;;
9254;SDS011;4663;49.120;9.730;2023-02-22T06:24:52;49.57;;;46.47;;
9254;SDS011;4663;49.120;9.730;2023-02-22T06:27:17;48.73;;;45.70;;
9254;SDS011;4663;49.120;9.730;2023-02-22T06:29:43;50.53;;;47.03;;
9254;SDS011;4663;49.120;9.730;2023-02-22T06:32:10;48.90;;;45.77;;
9254;SDS011;4663;49.120;9.730;2023-02-22T06:34:36;52.77;;;49.53;;
9254;SDS011;4663;49.120;9.730;2023-02-22T06:37:02;57.57;;;53.93;;
9254;SDS011;4663;49.120;9.730;2023-02-22T06:39:27;57.70;;;54.13;;
9254;SDS011;4663;49.120;9.730;2023-02-22T06:41:52;64.93;;;60.37;;
9254;SDS011;4663;49.120;9.730;2023-02-22T06:44:20;61.17;;;57.60;;
9254;SDS011;4663;49.120;9.730;2023-02-22T06:46:46;59.17;;;55.57;;
9254;SDS011;4663;49.120;9.730;2023-02-22T06:49:12;64.53;;;60.67;;
9254;SDS011;4663;49.120;9.730;2023-02-22T06:51:38;58.40;;;54.93;;
9254;SDS011;4663;49.120;9.730;2023-02-22T06:54:03;53.73;;;50.33;;
9254;SDS011;4663;49.120;9.730;2023-02-22T06:56:30;52.90;;;49.40;;
9254;SDS011;4663;49.120;9.730;2023-02-22T06:58:55;52.03;;;48.73;;
9254;SDS011;4663;49.120;9.730;2023-02-22T07:01:20;49.63;;;46.10;;
9254;SDS011;4663;49.120;9.730;2023-02-22T07:03:47;46.67;;;43.57;;
9254;SDS011;4663;49.120;9.730;2023-02-22T07:06:13;55.67;;;51.13;;
9254;SDS011;4663;49.120;9.730;2023-02-22T07:08:38;51.10;;;46.73;;
9254;SDS011;4663;49.120;9.730;2023-02-22T07:11:03;40.43;;;37.03;;
9254;SDS011;4663;49.120;9.730;2023-02-22T07:13:29;33.83;;;30.87;;
9254;SDS011;4663;49.120;9.730;2023-02-22T07:15:55;30.60;;;27.60;;
9254;SDS011;4663;49.120;9.730;2023-02-22T07:18:20;28.43;;;26.17;;
9254;SDS011;4663;49.120;9.730;2023-02-22T07:20:45;38.00;;;33.80;;
9254;SDS011;4663;49.120;9.730;2023-02-22T07:23:14;33.10;;;30.13;;
9254;SDS011;4663;49.120;9.730;2023-02-22T07:25:40;31.47;;;28.73;;
9254;SDS011;4663;49.120;9.730;2023-02-22T07:28:06;50.20;;;44.77;;
9254;SDS011;4663;49.120;9.730;2023-02-22T07:30:32;35.83;;;32.77;;
9254;SDS011;4663;49.120;9.730;2023-02-22T07:33:02;32.97;;;30.20;;
9254;SDS011;4663;49.120;9.730;2023-02-22T07:35:43;34.03;;;31.10;;
9254;SDS011;4663;49.120;9.730;2023-02-22T07:38:10;38.40;;;35.40;;
9254;SDS011;4663;49.120;9.730;2023-02-22T07:40:37;45.27;;;41.97;;
9254;SDS011;4663;49.120;9.730;2023-02-22T07:43:13;49.23;;;45.67;;
9254;SDS011;4663;49.120;9.730;2023-02-22T07:45:39;51.00;;;47.53;;
9254;SDS011;4663;49.120;9.730;2023-02-22T07:48:05;49.20;;;45.63;;
9254;SDS011;4663;49.120;9.730;2023-02-22T07:50:32;51.20;;;47.03;;
9254;SDS011;4663;49.120;9.730;2023-02-22T07:53:01;45.10;;;42.07;;
9254;SDS011;4663;49.120;9.730;2023-02-22T07:55:28;40.43;;;37.67;;
9254;SDS011;4663;49.120;9.730;2023-02-22T07:57:56;42.50;;;39.83;;
9254;SDS011;4663;49.120;9.730;2023-02-22T08:00:36;44.80;;;41.57;;
9254;SDS011;4663;49.120;9.730;2023-02-22T08:03:04;38.40;;;35.77;;
9254;SDS011;4663;49.120;9.730;2023-02-22T08:05:32;35.93;;;33.37;;
9254;SDS011;4663;49.120;9.730;2023-02-22T08:07:59;32.00;;;29.80;;
9254;SDS011;4663;49.120;9.730;2023-02-22T08:10:25;31.23;;;29.00;;
9254;SDS011;4663;49.120;9.730;2023-02-22T08:12:51;34.03;;;31.60;;
9254;SDS011;4663;49.120;9.730;2023-02-22T08:15:21;38.70;;;35.77;;
9254;SDS011;4663;49.120;9.730;2023-02-22T08:17:55;42.13;;;39.13;;
9254;SDS011;4663;49.120;9.730;2023-02-22T08:20:22;60.03;;;56.47;;
9254;SDS011;4663;49.120;9.730;2023-02-22T08:22:47;58.40;;;55.03;;
9254;SDS011;4663;49.120;9.730;2023-02-22T08:25:13;45.80;;;42.83;;
9254;SDS011;4663;49.120;9.730;2023-02-22T08:27:41;34.47;;;32.10;;
9254;SDS011;4663;49.120;9.730;2023-02-22T08:30:08;33.07;;;30.83;;
9254;SDS011;4663;49.120;9.730;2023-02-22T08:32:39;30.17;;;27.50;;
9254;SDS011;4663;49.120;9.730;2023-02-22T08:35:04;27.93;;;25.77;;
9254;SDS011;4663;49.120;9.730;2023-02-22T08:37:30;25.57;;;23.77;;
9254;SDS011;4663;49.120;9.730;2023-02-22T08:39:56;23.90;;;22.20;;
9254;SDS011;4663;49.120;9.730;2023-02-22T08:42:21;23.40;;;21.60;;
9254;SDS011;4663;49.120;9.730;2023-02-22T08:44:46;24.80;;;23.00;;
9254;SDS011;4663;49.120;9.730;2023-02-22T08:47:12;25.70;;;23.70;;
9254;SDS011;4663;49.120;9.730;2023-02-22T08:49:37;23.90;;;22.00;;
9254;SDS011;4663;49.120;9.730;2023-02-22T08:52:03;24.37;;;22.47;;
9254;SDS011;4663;49.120;9.730;2023-02-22T08:54:28;25.37;;;23.57;;
9254;SDS011;4663;49.120;9.730;2023-02-22T08:56:53;26.03;;;24.13;;
9254;SDS011;4663;49.120;9.730;2023-02-22T08:59:19;29.80;;;27.83;;
9254;SDS011;4663;49.120;9.730;2023-02-22T09:01:44;41.47;;;38.80;;
9254;SDS011;4663;49.120;9.730;2023-02-22T09:04:09;47.87;;;44.90;;
9254;SDS011;4663;49.120;9.730;2023-02-22T09:06:35;53.60;;;50.50;;
9254;SDS011;4663;49.120;9.730;2023-02-22T09:09:00;52.50;;;49.37;;
9254;SDS011;4663;49.120;9.730;2023-02-22T09:11:26;51.03;;;48.07;;
9254;SDS011;4663;49.120;9.730;2023-02-22T09:13:52;47.63;;;44.40;;
9254;SDS011;4663;49.120;9.730;2023-02-22T09:16:17;36.93;;;34.43;;
9254;SDS011;4663;49.120;9.730;2023-02-22T09:18:42;28.00;;;25.80;;
9254;SDS011;4663;49.120;9.730;2023-02-22T09:21:08;22.70;;;21.00;;
9254;SDS011;4663;49.120;9.730;2023-02-22T09:23:33;26.53;;;24.63;;
9254;SDS011;4663;49.120;9.730;2023-02-22T09:25:59;26.43;;;24.60;;
9254;SDS011;4663;49.120;9.730;2023-02-22T09:28:25;25.43;;;23.83;;
9254;SDS011;4663;49.120;9.730;2023-02-22T09:30:53;27.30;;;25.50;;
9254;SDS011;4663;49.120;9.730;2023-02-22T09:33:18;25.70;;;23.97;;
9254;SDS011;4663;49.120;9.730;2023-02-22T09:35:45;25.93;;;24.10;;
9254;SDS011;4663;49.120;9.730;2023-02-22T09:38:14;25.37;;;23.50;;
9254;SDS011;4663;49.120;9.730;2023-02-22T09:40:42;26.40;;;24.73;;
9254;SDS011;4663;49.120;9.730;2023-02-22T09:51:21;34.87;;;32.63;;
9254;SDS011;4663;49.120;9.730;2023-02-22T09:53:52;30.53;;;28.70;;
9254;SDS011;4663;49.120;9.730;2023-02-22T09:56:22;28.45;;;26.55;;
9254;SDS011;4663;49.120;9.730;2023-02-22T09:58:50;25.30;;;23.53;;
9254;SDS011;4663;49.120;9.730;2023-02-22T10:01:32;21.55;;;19.75;;
9254;SDS011;4663;49.120;9.730;2023-02-22T10:06:28;22.65;;;20.88;;
9254;SDS011;4663;49.120;9.730;2023-02-22T10:08:56;19.35;;;17.83;;
9254;SDS011;4663;49.120;9.730;2023-02-22T10:19:39;30.40;;;28.75;;
9254;SDS011;4663;49.120;9.730;2023-02-22T10:25:26;23.65;;;22.15;;
9254;SDS011;4663;49.120;9.730;2023-02-22T10:30:33;23.17;;;21.77;;
9254;SDS011;4663;49.120;9.730;2023-02-22T10:33:11;19.92;;;18.73;;
9254;SDS011;4663;49.120;9.730;2023-02-22T10:35:41;23.20;;;21.77;;
9254;SDS011;4663;49.120;9.730;2023-02-22T10:40:45;26.17;;;24.55;;
9254;SDS011;4663;49.120;9.730;2023-02-22T10:43:14;33.47;;;31.58;;
9254;SDS011;4663;49.120;9.730;2023-02-22T10:45:40;30.75;;;29.05;;
9254;SDS011;4663;49.120;9.730;2023-02-22T10:48:15;32.72;;;30.85;;
9254;SDS011;4663;49.120;9.730;2023-02-22T10:50:44;28.58;;;26.90;;
9254;SDS011;4663;49.120;9.730;2023-02-22T10:53:10;25.35;;;23.85;;
9254;SDS011;4663;49.120;9.730;2023-02-22T10:56:22;23.02;;;21.63;;
9254;SDS011;4663;49.120;9.730;2023-02-22T11:01:27;21.85;;;20.45;;
9254;SDS011;4663;49.120;9.730;2023-02-22T11:06:44;33.60;;;31.70;;
9254;SDS011;4663;49.120;9.730;2023-02-22T11:11:42;37.17;;;34.97;;
9254;SDS011;4663;49.120;9.730;2023-02-22T11:14:10;46.90;;;44.42;;
9254;SDS011;4663;49.120;9.730;2023-02-22T11:16:41;38.65;;;36.35;;
9254;SDS011;4663;49.120;9.730;2023-02-22T11:21:39;32.92;;;31.10;;
9254;SDS011;4663;49.120;9.730;2023-02-22T11:24:12;25.52;;;24.10;;
9254;SDS011;4663;49.120;9.730;2023-02-22T11:26:46;23.63;;;22.33;;
9254;SDS011;4663;49.120;9.730;2023-02-22T11:29:21;23.42;;;22.10;;
9254;SDS011;4663;49.120;9.730;2023-02-22T11:31:56;23.98;;;22.45;;
9254;SDS011;4663;49.120;9.730;2023-02-22T11:34:24;25.92;;;24.30;;
9254;SDS011;4663;49.120;9.730;2023-02-22T11:36:53;26.40;;;24.55;;
9254;SDS011;4663;49.120;9.730;2023-02-22T11:39:24;23.45;;;22.02;;
9254;SDS011;4663;49.120;9.730;2023-02-22T11:41:50;30.88;;;29.17;;
9254;SDS011;4663;49.120;9.730;2023-02-22T11:44:23;32.83;;;30.98;;
9254;SDS011;4663;49.120;9.730;2023-02-22T11:46:57;33.47;;;31.73;;
9254;SDS011;4663;49.120;9.730;2023-02-22T11:49:34;38.92;;;36.80;;
9254;SDS011;4663;49.120;9.730;2023-02-22T12:05:29;23.48;;;22.10;;
9254;SDS011;4663;49.120;9.730;2023-02-22T12:10:56;35.25;;;33.28;;
9254;SDS011;4663;49.120;9.730;2023-02-22T12:13:24;35.83;;;33.63;;
9254;SDS011;4663;49.120;9.730;2023-02-22T12:18:28;35.72;;;33.58;;
9254;SDS011;4663;49.120;9.730;2023-02-22T12:21:06;30.52;;;28.67;;
9254;SDS011;4663;49.120;9.730;2023-02-22T12:26:52;33.10;;;31.30;;
9254;SDS011;4663;49.120;9.730;2023-02-22T12:29:33;35.28;;;33.38;;
9254;SDS011;4663;49.120;9.730;2023-02-22T12:35:00;33.75;;;31.98;;
9254;SDS011;4663;49.120;9.730;2023-02-22T12:37:33;30.45;;;28.70;;
9254;SDS011;4663;49.120;9.730;2023-02-22T12:40:18;26.55;;;25.15;;
9254;SDS011;4663;49.120;9.730;2023-02-22T12:43:07;28.85;;;27.27;;
9254;SDS011;4663;49.120;9.730;2023-02-22T12:46:10;29.27;;;27.42;;
9254;SDS011;4663;49.120;9.730;2023-02-22T12:56:58;34.20;;;32.40;;
9254;SDS011;4663;49.120;9.730;2023-02-22T13:02:10;34.75;;;32.67;;
9254;SDS011;4663;49.120;9.730;2023-02-22T13:04:42;34.85;;;32.97;;
9254;SDS011;4663;49.120;9.730;2023-02-22T13:07:17;36.60;;;34.30;;
9254;SDS011;4663;49.120;9.730;2023-02-22T13:12:15;36.30;;;34.20;;
9254;SDS011;4663;49.120;9.730;2023-02-22T13:15:05;34.00;;;31.92;;
9254;SDS011;4663;49.120;9.730;2023-02-22T13:17:53;34.60;;;32.67;;
9254;SDS011;4663;49.120;9.730;2023-02-22T13:20:26;35.15;;;33.05;;
9254;SDS011;4663;49.120;9.730;2023-02-22T13:23:02;37.20;;;35.17;;
9254;SDS011;4663;49.120;9.730;2023-02-22T13:34:29;27.13;;;25.40;;
9254;SDS011;4663;49.120;9.730;2023-02-22T13:56:07;23.17;;;21.58;;
9254;SDS011;4663;49.120;9.730;2023-02-22T13:58:57;22.10;;;20.65;;
9254;SDS011;4663;49.120;9.730;2023-02-22T14:01:35;23.23;;;21.73;;
9254;SDS011;4663;49.120;9.730;2023-02-22T14:07:01;27.77;;;25.90;;
9254;SDS011;4663;49.120;9.730;2023-02-22T14:15:27;23.60;;;22.08;;
9254;SDS011;4663;49.120;9.730;2023-02-22T14:20:42;22.75;;;20.98;;
9254;SDS011;4663;49.120;9.730;2023-02-22T14:25:53;23.77;;;21.92;;
9254;SDS011;4663;49.120;9.730;2023-02-22T14:31:23;24.73;;;23.13;;
9254;SDS011;4663;49.120;9.730;2023-02-22T14:36:27;28.92;;;27.17;;
9254;SDS011;4663;49.120;9.730;2023-02-22T14:39:01;30.55;;;28.70;;
9254;SDS011;4663;49.120;9.730;2023-02-22T14:41:34;26.38;;;24.67;;
9254;SDS011;4663;49.120;9.730;2023-02-22T14:44:02;27.40;;;25.70;;
9254;SDS011;4663;49.120;9.730;2023-02-22T14:46:30;25.40;;;23.60;;
9254;SDS011;4663;49.120;9.730;2023-02-22T14:49:04;27.25;;;25.30;;
9254;SDS011;4663;49.120;9.730;2023-02-22T14:51:41;29.35;;;27.50;;
9254;SDS011;4663;49.120;9.730;2023-02-22T14:59:51;24.60;;;22.80;;
9254;SDS011;4663;49.120;9.730;2023-02-22T15:02:18;24.27;;;22.75;;
9254;SDS011;4663;49.120;9.730;2023-02-22T15:04:50;25.40;;;23.65;;
9254;SDS011;4663;49.120;9.730;2023-02-22T15:09:44;21.65;;;20.23;;
9254;SDS011;4663;49.120;9.730;2023-02-22T15:12:15;23.02;;;21.33;;
9254;SDS011;4663;49.120;9.730;2023-02-22T15:14:48;22.70;;;21.10;;
9254;SDS011;4663;49.120;9.730;2023-02-22T15:17:16;20.58;;;19.33;;
9254;SDS011;4663;49.120;9.730;2023-02-22T15:19:45;22.17;;;20.42;;
9254;SDS011;4663;49.120;9.730;2023-02-22T15:22:23;20.98;;;19.45;;
9254;SDS011;4663;49.120;9.730;2023-02-22T15:27:24;22.17;;;20.40;;
9254;SDS011;4663;49.120;9.730;2023-02-22T15:29:55;20.20;;;18.60;;
9254;SDS011;4663;49.120;9.730;2023-02-22T15:33:06;21.58;;;19.85;;
9254;SDS011;4663;49.120;9.730;2023-02-22T15:37:43;22.92;;;21.30;;
9254;SDS011;4663;49.120;9.730;2023-02-22T15:40:14;22.33;;;20.88;;
9254;SDS011;4663;49.120;9.730;2023-02-22T15:42:46;24.95;;;22.42;;
9254;SDS011;4663;49.120;9.730;2023-02-22T15:45:17;25.10;;;23.55;;
9254;SDS011;4663;49.120;9.730;2023-02-22T15:47:45;23.92;;;22.38;;
9254;SDS011;4663;49.120;9.730;2023-02-22T15:50:13;23.13;;;21.58;;
9254;SDS011;4663;49.120;9.730;2023-02-22T15:53:02;25.23;;;23.23;;
9254;SDS011;4663;49.120;9.730;2023-02-22T15:57:59;22.35;;;20.85;;
9254;SDS011;4663;49.120;9.730;2023-02-22T16:00:34;21.40;;;20.08;;
9254;SDS011;4663;49.120;9.730;2023-02-22T16:03:04;20.40;;;19.00;;
9254;SDS011;4663;49.120;9.730;2023-02-22T16:05:38;20.70;;;19.30;;
9254;SDS011;4663;49.120;9.730;2023-02-22T16:08:20;24.80;;;23.10;;
9254;SDS011;4663;49.120;9.730;2023-02-22T16:10:57;27.63;;;25.38;;
9254;SDS011;4663;49.120;9.730;2023-02-22T16:13:26;28.90;;;27.05;;
9254;SDS011;4663;49.120;9.730;2023-02-22T16:16:04;35.00;;;32.45;;
9254;SDS011;4663;49.120;9.730;2023-02-22T16:18:48;36.58;;;34.33;;
9254;SDS011;4663;49.120;9.730;2023-02-22T16:21:16;36.72;;;34.60;;
9254;SDS011;4663;49.120;9.730;2023-02-22T16:28:40;22.52;;;20.98;;
9254;SDS011;4663;49.120;9.730;2023-02-22T16:31:16;21.52;;;19.90;;
9254;SDS011;4663;49.120;9.730;2023-02-22T16:33:44;20.60;;;19.10;;
9254;SDS011;4663;49.120;9.730;2023-02-22T16:36:10;21.27;;;19.67;;
9254;SDS011;4663;49.120;9.730;2023-02-22T16:38:36;22.27;;;20.40;;
9254;SDS011;4663;49.120;9.730;2023-02-22T16:41:03;21.65;;;19.85;;
9254;SDS011;4663;49.120;9.730;2023-02-22T16:43:30;21.02;;;19.40;;
9254;SDS011;4663;49.120;9.730;2023-02-22T16:45:59;22.42;;;20.83;;
9254;SDS011;4663;49.120;9.730;2023-02-22T16:48:27;23.73;;;21.98;;
9254;SDS011;4663;49.120;9.730;2023-02-22T16:50:55;23.73;;;22.00;;
9254;SDS011;4663;49.120;9.730;2023-02-22T16:53:25;24.45;;;22.63;;
9254;SDS011;4663;49.120;9.730;2023-02-22T16:55:53;27.48;;;25.67;;
9254;SDS011;4663;49.120;9.730;2023-02-22T16:58:22;26.83;;;24.83;;
9254;SDS011;4663;49.120;9.730;2023-02-22T17:00:53;28.23;;;26.30;;
9254;SDS011;4663;49.120;9.730;2023-02-22T17:03:21;31.80;;;29.58;;
9254;SDS011;4663;49.120;9.730;2023-02-22T17:05:48;28.63;;;26.60;;
9254;SDS011;4663;49.120;9.730;2023-02-22T17:08:13;33.13;;;30.83;;
9254;SDS011;4663;49.120;9.730;2023-02-22T17:10:42;34.92;;;32.70;;
9254;SDS011;4663;49.120;9.730;2023-02-22T17:13:08;35.25;;;32.92;;
9254;SDS011;4663;49.120;9.730;2023-02-22T17:15:34;34.33;;;31.83;;
9254;SDS011;4663;49.120;9.730;2023-02-22T17:18:02;32.38;;;29.83;;
9254;SDS011;4663;49.120;9.730;2023-02-22T17:20:35;31.05;;;28.88;;
9254;SDS011;4663;49.120;9.730;2023-02-22T17:23:05;30.23;;;28.03;;
9254;SDS011;4663;49.120;9.730;2023-02-22T17:25:46;31.60;;;29.50;;
9254;SDS011;4663;49.120;9.730;2023-02-22T17:28:17;37.63;;;35.17;;
9254;SDS011;4663;49.120;9.730;2023-02-22T17:30:43;36.03;;;33.57;;
9254;SDS011;4663;49.120;9.730;2023-02-22T17:33:14;36.53;;;34.13;;
9254;SDS011;4663;49.120;9.730;2023-02-22T17:35:41;37.93;;;35.53;;
9254;SDS011;4663;49.120;9.730;2023-02-22T17:38:07;39.03;;;36.33;;
9254;SDS011;4663;49.120;9.730;2023-02-22T17:40:37;41.20;;;38.67;;
9254;SDS011;4663;49.120;9.730;2023-02-22T17:43:04;40.43;;;37.93;;
9254;SDS011;4663;49.120;9.730;2023-02-22T17:45:33;41.17;;;38.55;;
9254;SDS011;4663;49.120;9.730;2023-02-22T17:48:01;42.87;;;39.67;;
9254;SDS011;4663;49.120;9.730;2023-02-22T17:50:26;45.38;;;42.45;;
9254;SDS011;4663;49.120;9.730;2023-02-22T17:52:52;45.03;;;42.20;;
9254;SDS011;4663;49.120;9.730;2023-02-22T17:55:18;42.53;;;39.80;;
9254;SDS011;4663;49.120;9.730;2023-02-22T17:57:45;43.60;;;40.87;;
9254;SDS011;4663;49.120;9.730;2023-02-22T18:00:14;47.50;;;44.33;;
9254;SDS011;4663;49.120;9.730;2023-02-22T18:02:47;48.87;;;45.70;;
9254;SDS011;4663;49.120;9.730;2023-02-22T18:05:14;51.30;;;47.70;;
9254;SDS011;4663;49.120;9.730;2023-02-22T18:07:41;48.78;;;45.67;;